createdAt,value
2018-01-13T00:01:27.669Z,5.90
2018-01-13T00:03:54.212Z,5.90
2018-01-13T00:06:20.860Z,6.00
2018-01-13T00:08:48.298Z,5.90
2018-01-13T00:11:15.494Z,6.00
2018-01-13T00:13:42.030Z,6.00
2018-01-13T00:16:08.544Z,6.10
2018-01-13T00:18:34.852Z,5.90
2018-01-13T00:21:01.922Z,6.10
2018-01-13T00:23:29.197Z,6.50
2018-01-13T00:25:55.625Z,6.50
2018-01-13T00:28:21.977Z,6.40
2018-01-13T00:30:48.425Z,6.50
2018-01-13T00:33:14.712Z,6.30
2018-01-13T00:35:41.118Z,6.10
2018-01-13T00:38:07.636Z,6.00
2018-01-13T00:40:34.213Z,6.20
2018-01-13T00:43:02.142Z,6.30
2018-01-13T00:45:28.608Z,6.20
2018-01-13T00:47:55.098Z,6.20
2018-01-13T00:50:22.375Z,5.70
2018-01-13T00:52:49.741Z,5.70
2018-01-13T00:55:16.741Z,5.60
2018-01-13T00:57:43.445Z,5.60
2018-01-13T01:00:10.549Z,5.50
2018-01-13T01:02:37.561Z,5.50
2018-01-13T01:05:04.743Z,5.90
2018-01-13T01:07:31.845Z,5.90
2018-01-13T01:09:58.332Z,6.00
2018-01-13T01:12:25.089Z,6.10
2018-01-13T01:14:51.492Z,6.10
2018-01-13T01:17:18.029Z,6.40
2018-01-13T01:19:44.270Z,6.60
2018-01-13T01:22:10.520Z,6.50
2018-01-13T01:24:37.639Z,6.60
2018-01-13T01:27:03.896Z,6.60
2018-01-13T01:29:30.152Z,6.20
2018-01-13T01:31:56.399Z,5.90
2018-01-13T01:34:22.725Z,5.90
2018-01-13T01:36:48.990Z,5.90
2018-01-13T01:39:15.254Z,5.80
2018-01-13T01:41:41.524Z,6.10
2018-01-13T01:44:07.786Z,5.50
2018-01-13T01:46:34.027Z,6.20
2018-01-13T01:49:00.281Z,6.20
2018-01-13T01:51:27.276Z,6.30
2018-01-13T01:53:54.269Z,6.30
2018-01-13T01:56:21.250Z,6.50
2018-01-13T01:58:47.501Z,6.50
2018-01-13T02:01:13.753Z,6.30
2018-01-13T02:03:40.022Z,6.50
2018-01-13T02:06:06.268Z,6.50
2018-01-13T02:08:33.262Z,6.50
2018-01-13T02:10:59.539Z,6.40
2018-01-13T02:13:26.524Z,6.40
2018-01-13T02:15:52.768Z,6.40
2018-01-13T02:18:19.774Z,6.30
2018-01-13T02:20:46.027Z,6.30
2018-01-13T02:23:12.276Z,6.40
2018-01-13T02:25:40.237Z,6.40
2018-01-13T02:28:06.512Z,6.40
2018-01-13T02:30:32.785Z,6.50
2018-01-13T02:33:00.141Z,6.40
2018-01-13T02:35:27.124Z,6.60
2018-01-13T02:37:53.380Z,6.60
2018-01-13T02:40:19.634Z,6.70
2018-01-13T02:42:45.964Z,6.30
2018-01-13T02:45:12.196Z,6.10
2018-01-13T02:47:38.449Z,6.20
2018-01-13T02:50:04.703Z,6.20
2018-01-13T02:52:31.160Z,6.00
2018-01-13T02:54:57.709Z,5.60
2018-01-13T02:57:23.973Z,5.80
2018-01-13T02:59:50.968Z,6.00
2018-01-13T03:02:17.212Z,6.00
2018-01-13T03:04:43.468Z,6.00
2018-01-13T03:07:09.705Z,5.60
2018-01-13T03:09:35.988Z,5.70
2018-01-13T03:12:02.229Z,5.90
2018-01-13T03:14:28.465Z,6.10
2018-01-13T03:16:54.722Z,6.30
2018-01-13T03:19:20.965Z,6.20
2018-01-13T03:21:47.977Z,6.40
2018-01-13T03:24:14.233Z,6.10
2018-01-13T03:26:40.497Z,6.30
2018-01-13T03:29:06.721Z,6.00
2018-01-13T03:31:33.080Z,6.00
2018-01-13T03:33:59.376Z,6.20
2018-01-13T03:36:25.728Z,6.30
2018-01-13T03:38:52.428Z,6.40
2018-01-13T03:41:18.634Z,6.50
2018-01-13T03:43:45.677Z,6.40
2018-01-13T03:46:12.241Z,6.40
2018-01-13T03:48:39.253Z,6.50
2018-01-13T03:51:05.490Z,6.50
2018-01-13T03:53:31.708Z,6.20
2018-01-13T03:55:57.932Z,6.40
2018-01-13T03:58:24.182Z,6.40
2018-01-13T04:00:50.416Z,6.10
2018-01-13T04:03:16.876Z,6.20
2018-01-13T04:05:43.129Z,6.20
2018-01-13T04:08:10.113Z,6.20
2018-01-13T04:10:36.357Z,6.10
2018-01-13T04:13:02.590Z,6.10
2018-01-13T04:15:29.772Z,6.20
2018-01-13T04:17:56.010Z,6.20
2018-01-13T04:20:22.252Z,6.40
2018-01-13T04:22:48.601Z,6.30
2018-01-13T04:25:14.842Z,6.40
2018-01-13T04:27:41.076Z,6.40
2018-01-13T04:30:07.316Z,6.30
2018-01-13T04:32:33.778Z,6.20
2018-01-13T04:35:00.259Z,6.20
2018-01-13T04:37:26.490Z,6.30
2018-01-13T04:39:56.596Z,6.50
2018-01-13T04:42:22.836Z,6.10
2018-01-13T04:44:49.121Z,6.20
2018-01-13T04:47:16.208Z,6.50
2018-01-13T04:49:42.469Z,6.50
2018-01-13T04:52:08.732Z,6.50
2018-01-13T04:54:35.140Z,6.50
2018-01-13T04:57:01.937Z,6.40
2018-01-13T04:59:28.241Z,6.40
2018-01-13T05:01:54.497Z,6.30
2018-01-13T05:04:20.753Z,6.40
2018-01-13T05:06:47.001Z,6.60
2018-01-13T05:09:13.275Z,6.30
2018-01-13T05:11:40.273Z,6.40
2018-01-13T05:14:06.552Z,6.40
2018-01-13T05:16:32.820Z,6.50
2018-01-13T05:18:59.820Z,6.50
2018-01-13T05:21:26.199Z,6.50
2018-01-13T05:23:52.449Z,6.60
2018-01-13T05:26:18.687Z,6.70
2018-01-13T05:28:44.928Z,6.60
2018-01-13T05:31:11.486Z,6.70
2018-01-13T05:33:37.741Z,6.80
2018-01-13T05:36:04.081Z,6.80
2018-01-13T05:38:31.085Z,6.90
2018-01-13T05:40:57.357Z,6.80
2018-01-13T05:43:23.568Z,7.00
2018-01-13T05:45:49.848Z,6.70
2018-01-13T05:48:16.412Z,6.80
2018-01-13T05:50:43.397Z,6.70
2018-01-13T05:53:09.670Z,6.70
2018-01-13T05:55:35.940Z,6.70
2018-01-13T05:58:02.177Z,6.70
2018-01-13T06:00:28.421Z,6.70
2018-01-13T06:02:54.642Z,6.50
2018-01-13T06:05:20.872Z,6.60
2018-01-13T06:07:47.111Z,6.60
2018-01-13T06:10:13.321Z,6.60
2018-01-13T06:12:39.541Z,6.70
2018-01-13T06:15:06.509Z,6.60
2018-01-13T06:17:33.480Z,6.60
2018-01-13T06:19:59.717Z,6.60
2018-01-13T06:22:25.964Z,6.60
2018-01-13T06:24:52.192Z,6.60
2018-01-13T06:27:19.170Z,6.30
2018-01-13T06:29:45.421Z,6.40
2018-01-13T06:32:11.655Z,6.50
2018-01-13T06:34:37.919Z,6.30
2018-01-13T06:37:04.172Z,6.20
2018-01-13T06:39:30.513Z,5.90
2018-01-13T06:41:57.495Z,6.00
2018-01-13T06:44:24.460Z,6.30
2018-01-13T06:46:51.420Z,6.30
2018-01-13T06:49:17.947Z,6.30
2018-01-13T06:51:44.223Z,6.30
2018-01-13T06:54:11.246Z,6.40
2018-01-13T06:56:38.025Z,6.50
2018-01-13T06:59:04.862Z,6.40
2018-01-13T07:01:31.145Z,6.10
2018-01-13T07:03:58.996Z,6.30
2018-01-13T07:06:25.209Z,6.30
2018-01-13T07:08:52.177Z,6.10
2018-01-13T07:11:18.409Z,6.10
2018-01-13T07:13:47.240Z,6.00
2018-01-13T07:16:14.208Z,6.00
2018-01-13T07:18:41.185Z,5.90
2018-01-13T07:21:07.668Z,5.80
2018-01-13T07:23:34.086Z,5.90
2018-01-13T07:26:00.316Z,6.00
2018-01-13T07:28:26.700Z,6.20
2018-01-13T07:30:54.417Z,6.10
2018-01-13T07:33:21.553Z,6.10
2018-01-13T07:35:48.557Z,6.30
2018-01-13T07:38:14.784Z,6.30
2018-01-13T07:40:41.063Z,6.30
2018-01-13T07:43:07.312Z,6.40
2018-01-13T07:45:33.711Z,6.30
2018-01-13T07:47:59.971Z,6.50
2018-01-13T07:50:26.295Z,6.60
2018-01-13T07:52:52.547Z,6.70
2018-01-13T07:55:18.855Z,6.50
2018-01-13T07:57:45.176Z,6.60
2018-01-13T08:00:11.433Z,6.60
2018-01-13T08:02:37.689Z,6.60
2018-01-13T08:05:04.681Z,6.70
2018-01-13T08:07:31.304Z,6.70
2018-01-13T08:09:57.758Z,6.80
2018-01-13T08:12:24.321Z,6.70
2018-01-13T08:14:50.616Z,6.90
2018-01-13T08:17:17.026Z,7.00
2018-01-13T08:19:43.290Z,7.10
2018-01-13T08:22:09.534Z,7.10
2018-01-13T08:24:35.808Z,7.10
2018-01-13T08:27:02.798Z,7.00
2018-01-13T08:29:29.977Z,7.00
2018-01-13T08:31:56.158Z,7.10
2018-01-13T08:34:23.177Z,7.00
2018-01-13T08:36:50.197Z,7.10
2018-01-13T08:39:16.576Z,7.40
2018-01-13T08:41:42.855Z,7.10
2018-01-13T08:44:09.103Z,7.30
2018-01-13T08:46:36.104Z,7.40
2018-01-13T08:49:02.358Z,7.40
2018-01-13T08:51:28.645Z,7.40
2018-01-13T08:53:54.990Z,7.50
2018-01-13T08:56:22.053Z,7.80
2018-01-13T08:58:49.064Z,7.80
2018-01-13T09:01:18.216Z,7.80
2018-01-13T09:03:44.505Z,7.90
2018-01-13T09:06:10.740Z,7.90
2018-01-13T09:08:37.032Z,7.80
2018-01-13T09:11:03.252Z,7.90
2018-01-13T09:13:30.346Z,7.70
2018-01-13T09:15:57.393Z,7.80
2018-01-13T09:18:23.729Z,7.80
2018-01-13T09:20:49.987Z,8.00
2018-01-13T09:23:16.984Z,8.10
2018-01-13T09:25:44.030Z,8.10
2018-01-13T09:28:10.400Z,8.40
2018-01-13T09:30:36.622Z,8.10
2018-01-13T09:33:02.920Z,8.20
2018-01-13T09:35:29.204Z,8.20
2018-01-13T09:37:55.382Z,7.90
2018-01-13T09:40:21.612Z,8.10
2018-01-13T09:42:47.862Z,8.20
2018-01-13T09:45:14.164Z,8.10
2018-01-13T09:47:41.250Z,8.30
2018-01-13T09:50:07.497Z,8.30
2018-01-13T09:52:34.545Z,8.40
2018-01-13T09:55:00.853Z,8.40
2018-01-13T09:57:27.856Z,8.40
2018-01-13T09:59:54.396Z,8.40
2018-01-13T10:02:20.690Z,8.50
2018-01-13T10:04:47.242Z,8.60
2018-01-13T10:07:13.520Z,8.30
2018-01-13T10:09:40.578Z,8.40
2018-01-13T10:12:06.895Z,8.50
2018-01-13T10:14:33.897Z,8.50
2018-01-13T10:17:00.144Z,8.50
2018-01-13T10:19:26.560Z,8.30
2018-01-13T10:21:52.919Z,8.10
2018-01-13T10:24:20.788Z,8.30
2018-01-13T10:26:47.047Z,8.30
2018-01-13T10:29:13.156Z,8.20
2018-01-13T10:31:39.427Z,8.50
2018-01-13T10:34:05.814Z,8.60
2018-01-13T10:36:32.089Z,8.20
2018-01-13T10:38:58.368Z,8.20
2018-01-13T10:41:25.366Z,8.50
2018-01-13T10:43:51.679Z,8.50
2018-01-13T10:46:17.714Z,8.30
2018-01-13T10:48:43.760Z,8.40
2018-01-13T10:51:10.029Z,8.10
2018-01-13T10:53:36.259Z,8.40
2018-01-13T10:56:02.501Z,8.70
2018-01-13T10:58:28.725Z,8.60
2018-01-13T11:00:54.744Z,9.00
2018-01-13T11:03:20.783Z,9.10
2018-01-13T11:05:47.096Z,9.20
2018-01-13T11:08:13.374Z,9.30
2018-01-13T11:10:40.076Z,9.40
2018-01-13T11:13:06.307Z,9.40
2018-01-13T11:15:33.289Z,9.80
2018-01-13T11:17:59.534Z,9.80
2018-01-13T11:20:25.780Z,10.00
2018-01-13T11:22:52.021Z,9.60
2018-01-13T11:25:18.254Z,9.70
2018-01-13T11:27:45.540Z,9.40
2018-01-13T11:30:11.657Z,9.30
2018-01-13T11:32:37.873Z,9.10
2018-01-13T11:35:04.653Z,9.20
2018-01-13T11:37:30.672Z,9.20
2018-01-13T11:39:57.444Z,8.90
2018-01-13T11:42:23.690Z,8.90
2018-01-13T11:44:49.724Z,8.80
2018-01-13T11:47:15.772Z,8.80
2018-01-13T11:49:42.051Z,9.20
2018-01-13T11:52:08.328Z,9.30
2018-01-13T11:54:34.732Z,9.40
2018-01-13T11:57:00.944Z,9.30
2018-01-13T11:59:27.586Z,9.50
2018-01-13T12:01:53.647Z,9.20
2018-01-13T12:04:19.672Z,8.80
2018-01-13T12:06:45.925Z,8.80
2018-01-13T12:09:12.228Z,8.70
2018-01-13T12:11:38.790Z,8.70
2018-01-13T12:14:05.021Z,8.50
2018-01-13T12:16:31.268Z,8.70
2018-01-13T12:18:58.246Z,8.70
2018-01-13T12:21:24.480Z,8.70
2018-01-13T12:23:50.754Z,8.70
2018-01-13T12:26:16.976Z,8.80
2018-01-13T12:28:43.217Z,8.80
2018-01-13T12:31:09.543Z,8.20
2018-01-13T12:33:35.824Z,8.90
2018-01-13T12:36:02.830Z,9.00
2018-01-13T12:38:29.037Z,9.00
2018-01-13T12:40:55.913Z,9.40
2018-01-13T12:43:22.996Z,9.60
2018-01-13T12:45:49.274Z,9.60
2018-01-13T12:48:15.538Z,9.60
2018-01-13T12:50:41.832Z,9.90
2018-01-13T12:53:08.840Z,9.30
2018-01-13T12:55:35.681Z,9.10
2018-01-13T12:58:02.491Z,9.20
2018-01-13T13:00:28.817Z,9.20
2018-01-13T13:02:55.101Z,9.20
2018-01-13T13:05:21.636Z,8.80
2018-01-13T13:07:47.904Z,9.10
2018-01-13T13:10:14.341Z,9.00
2018-01-13T13:12:40.664Z,9.30
2018-01-13T13:15:06.960Z,9.40
2018-01-13T13:17:33.235Z,9.10
2018-01-13T13:19:59.598Z,9.10
2018-01-13T13:22:26.607Z,9.20
2018-01-13T13:24:52.920Z,9.10
2018-01-13T13:27:19.010Z,9.40
2018-01-13T13:29:46.814Z,9.70
2018-01-13T13:32:13.636Z,10.00
2018-01-13T13:34:40.432Z,10.30
2018-01-13T13:37:06.481Z,10.30
2018-01-13T13:39:32.864Z,9.80
2018-01-13T13:41:59.141Z,9.50
2018-01-13T13:44:25.392Z,9.70
2018-01-13T13:46:57.928Z,9.60
2018-01-13T13:49:24.193Z,9.40
2018-01-13T13:51:50.474Z,9.20
2018-01-13T13:54:16.730Z,9.30
2018-01-13T13:56:42.988Z,9.30
2018-01-13T13:59:10.007Z,9.70
2018-01-13T14:01:36.277Z,9.60
2018-01-13T14:04:02.683Z,9.30
2018-01-13T14:06:28.949Z,9.40
2018-01-13T14:08:55.212Z,9.60
2018-01-13T14:11:21.273Z,9.60
2018-01-13T14:13:48.061Z,9.00
2018-01-13T14:16:14.693Z,9.00
2018-01-13T14:18:46.061Z,8.90
2018-01-13T14:21:12.359Z,8.70
2018-01-13T14:23:39.356Z,8.50
2018-01-13T14:26:05.637Z,8.60
2018-01-13T14:28:31.903Z,8.90
2018-01-13T14:30:58.906Z,8.60
2018-01-13T14:33:25.160Z,8.60
2018-01-13T14:35:51.400Z,8.40
2018-01-13T14:38:21.142Z,8.40
2018-01-13T14:40:47.191Z,8.50
2018-01-13T14:43:13.228Z,8.50
2018-01-13T14:45:39.274Z,8.60
2018-01-13T14:48:05.296Z,8.60
2018-01-13T14:50:31.337Z,8.50
2018-01-13T14:52:57.389Z,8.90
2018-01-13T14:55:23.425Z,8.60
2018-01-13T14:57:49.491Z,8.50
2018-01-13T15:00:19.073Z,8.40
2018-01-13T15:02:45.142Z,8.20
2018-01-13T15:05:11.924Z,7.90
2018-01-13T15:07:38.018Z,7.80
2018-01-13T15:10:04.277Z,7.90
2018-01-13T15:12:30.688Z,8.00
2018-01-13T15:14:56.902Z,8.10
2018-01-13T15:17:23.145Z,7.90
2018-01-13T15:19:52.489Z,8.20
2018-01-13T15:22:19.451Z,8.10
2018-01-13T15:24:45.685Z,8.30
2018-01-13T15:27:12.661Z,8.00
2018-01-13T15:29:39.260Z,8.00
2018-01-13T15:32:05.692Z,8.00
2018-01-13T15:34:31.750Z,8.00
2018-01-13T15:36:57.813Z,8.00
2018-01-13T15:39:26.436Z,7.80
2018-01-13T15:41:52.485Z,8.10
2018-01-13T15:44:19.281Z,8.00
2018-01-13T15:46:45.565Z,8.00
2018-01-13T15:49:11.805Z,8.00
2018-01-13T15:51:38.076Z,8.10
2018-01-13T15:54:04.366Z,7.90
2018-01-13T15:56:30.489Z,8.10
2018-01-13T15:59:01.069Z,8.00
2018-01-13T16:01:27.148Z,8.10
2018-01-13T16:03:53.529Z,8.10
2018-01-13T16:06:19.837Z,8.10
2018-01-13T16:08:46.097Z,8.10
2018-01-13T16:11:12.369Z,8.00
2018-01-13T16:13:38.725Z,7.90
2018-01-13T16:16:10.160Z,7.80
2018-01-13T16:18:36.429Z,7.90
2018-01-13T16:21:02.701Z,7.80
2018-01-13T16:23:29.120Z,7.60
2018-01-13T16:25:55.399Z,7.70
2018-01-13T16:28:21.657Z,7.60
2018-01-13T16:30:48.293Z,7.60
2018-01-13T16:33:14.385Z,7.50
2018-01-13T16:35:42.080Z,7.40
2018-01-13T16:38:08.867Z,6.70
2018-01-13T16:40:35.004Z,6.80
2018-01-13T16:43:01.281Z,6.70
2018-01-13T16:45:28.315Z,6.70
2018-01-13T16:47:55.337Z,6.80
2018-01-13T16:50:21.674Z,6.70
2018-01-13T16:52:50.312Z,6.90
2018-01-13T16:55:16.578Z,6.90
2018-01-13T16:57:43.574Z,6.40
2018-01-13T17:00:09.628Z,6.20
2018-01-13T17:02:35.949Z,6.60
2018-01-13T17:05:02.228Z,6.60
2018-01-13T17:07:28.617Z,6.50
2018-01-13T17:09:54.892Z,6.30
2018-01-13T17:12:24.469Z,6.40
2018-01-13T17:14:50.712Z,6.30
2018-01-13T17:17:17.033Z,6.50
2018-01-13T17:19:43.302Z,6.60
2018-01-13T17:22:09.569Z,6.30
2018-01-13T17:24:35.612Z,6.50
2018-01-13T17:27:01.682Z,6.50
2018-01-13T17:29:27.746Z,6.20
2018-01-13T17:32:01.306Z,6.30
2018-01-13T17:34:27.370Z,6.20
2018-01-13T17:36:53.457Z,6.30
2018-01-13T17:39:20.296Z,6.50
2018-01-13T17:41:46.337Z,6.50
2018-01-13T17:44:12.381Z,6.50
2018-01-13T17:46:38.628Z,6.40
2018-01-13T17:49:07.712Z,6.30
2018-01-13T17:51:33.952Z,6.10
2018-01-13T17:54:00.212Z,6.20
2018-01-13T17:56:26.590Z,6.10
2018-01-13T17:58:52.860Z,6.30
2018-01-13T18:01:19.158Z,6.10
2018-01-13T18:03:46.241Z,6.30
2018-01-13T18:06:12.565Z,6.30
2018-01-13T18:08:39.410Z,6.30
2018-01-13T18:11:05.457Z,6.70
2018-01-13T18:13:31.548Z,6.20
2018-01-13T18:15:57.616Z,6.20
2018-01-13T18:18:23.674Z,6.00
2018-01-13T18:20:49.894Z,6.00
2018-01-13T18:23:15.946Z,5.80
2018-01-13T18:25:42.198Z,5.90
2018-01-13T18:28:09.072Z,5.80
2018-01-13T18:30:35.427Z,5.80
2018-01-13T18:33:01.632Z,5.90
2018-01-13T18:35:27.997Z,5.90
2018-01-13T18:37:54.244Z,5.80
2018-01-13T18:40:20.493Z,6.00
2018-01-13T18:42:46.709Z,5.80
2018-01-13T18:45:13.732Z,5.50
2018-01-13T18:47:39.981Z,5.40
2018-01-13T18:50:06.220Z,5.50
2018-01-13T18:52:32.443Z,5.50
2018-01-13T18:54:58.497Z,5.50
2018-01-13T18:57:24.752Z,5.70
2018-01-13T18:59:51.709Z,5.70
2018-01-13T19:02:18.576Z,5.70
2018-01-13T19:04:45.590Z,6.00
2018-01-13T19:07:11.829Z,6.00
2018-01-13T19:09:38.102Z,6.20
2018-01-13T19:12:04.441Z,6.20
2018-01-13T19:14:30.845Z,6.20
2018-01-13T19:16:57.061Z,6.00
2018-01-13T19:19:23.309Z,5.90
2018-01-13T19:21:49.532Z,6.10
2018-01-13T19:24:15.782Z,6.10
2018-01-13T19:26:42.077Z,6.20
2018-01-13T19:29:08.724Z,6.00
2018-01-13T19:31:35.098Z,6.10
2018-01-13T19:34:02.076Z,6.10
2018-01-13T19:36:28.354Z,6.10
2018-01-13T19:38:54.602Z,5.90
2018-01-13T19:41:22.094Z,6.30
2018-01-13T19:43:49.027Z,6.20
2018-01-13T19:46:15.275Z,6.20
2018-01-13T19:48:42.777Z,6.10
2018-01-13T19:51:09.896Z,6.20
2018-01-13T19:53:36.124Z,6.20
2018-01-13T19:56:02.773Z,6.40
2018-01-13T19:58:29.025Z,6.30
2018-01-13T20:00:55.278Z,6.30
2018-01-13T20:03:21.803Z,6.20
2018-01-13T20:05:48.043Z,6.20
2018-01-13T20:08:14.298Z,6.30
2018-01-13T20:10:41.085Z,6.30
2018-01-13T20:13:07.882Z,6.20
2018-01-13T20:15:34.270Z,6.20
2018-01-13T20:18:00.501Z,6.40
2018-01-13T20:20:26.637Z,6.40
2018-01-13T20:22:52.689Z,6.30
2018-01-13T20:25:18.925Z,6.20
2018-01-13T20:27:45.170Z,6.20
2018-01-13T20:30:12.153Z,6.10
2018-01-13T20:32:38.524Z,6.10
2018-01-13T20:35:04.777Z,6.30
2018-01-13T20:37:31.035Z,6.30
2018-01-13T20:39:57.270Z,6.50
2018-01-13T20:42:23.566Z,6.60
2018-01-13T20:44:49.600Z,6.30
2018-01-13T20:47:16.645Z,6.30
2018-01-13T20:49:42.957Z,6.30
2018-01-13T20:52:09.225Z,6.20
2018-01-13T20:54:36.220Z,6.40
2018-01-13T20:57:02.477Z,6.40
2018-01-13T20:59:28.740Z,6.20
2018-01-13T21:01:55.025Z,6.20
2018-01-13T21:04:21.285Z,6.40
2018-01-13T21:06:47.552Z,6.40
2018-01-13T21:09:13.816Z,6.10
2018-01-13T21:11:41.066Z,6.10
2018-01-13T21:14:08.097Z,6.10
2018-01-13T21:16:34.332Z,6.10
2018-01-13T21:19:00.601Z,6.30
2018-01-13T21:21:27.717Z,6.60
2018-01-13T21:23:53.989Z,6.60
2018-01-13T21:26:20.259Z,6.60
2018-01-13T21:28:47.226Z,6.10
2018-01-13T21:31:13.477Z,6.10
2018-01-13T21:33:40.472Z,6.30
2018-01-13T21:36:06.772Z,6.30
2018-01-13T21:38:33.033Z,6.10
2018-01-13T21:41:00.053Z,6.00
2018-01-13T21:43:26.176Z,5.90
2018-01-13T21:45:52.193Z,6.00
2018-01-13T21:48:18.429Z,6.20
2018-01-13T21:50:44.818Z,6.20
2018-01-13T21:53:11.042Z,6.20
2018-01-13T21:55:37.305Z,6.20
2018-01-13T21:58:03.972Z,6.40
2018-01-13T22:00:30.251Z,6.40
2018-01-13T22:02:56.686Z,6.50
2018-01-13T22:05:23.329Z,6.50
2018-01-13T22:07:50.347Z,6.00
2018-01-13T22:10:16.588Z,6.00
2018-01-13T22:12:42.861Z,5.90
2018-01-13T22:15:09.890Z,5.90
2018-01-13T22:17:36.266Z,5.90
2018-01-13T22:20:03.554Z,6.00
2018-01-13T22:22:30.545Z,6.20
2018-01-13T22:24:57.313Z,6.10
2018-01-13T22:27:23.447Z,6.00
2018-01-13T22:29:50.618Z,5.90
2018-01-13T22:32:16.873Z,5.90
2018-01-13T22:34:43.857Z,6.10
2018-01-13T22:37:10.148Z,6.20
2018-01-13T22:39:36.425Z,6.30
2018-01-13T22:42:02.706Z,6.10
2018-01-13T22:44:28.728Z,6.00
2018-01-13T22:46:55.040Z,5.90
2018-01-13T22:49:21.749Z,5.80
2018-01-13T22:51:48.000Z,6.20
2018-01-13T22:54:15.097Z,6.00
2018-01-13T22:56:42.136Z,6.00
2018-01-13T22:59:08.648Z,6.00
2018-01-13T23:01:34.919Z,6.00
2018-01-13T23:04:01.573Z,6.10
2018-01-13T23:06:27.624Z,6.10
2018-01-13T23:08:54.465Z,6.00
2018-01-13T23:11:20.589Z,6.00
2018-01-13T23:13:46.725Z,5.90
2018-01-13T23:16:12.864Z,5.90
2018-01-13T23:18:39.015Z,6.00
2018-01-13T23:21:05.157Z,6.10
2018-01-13T23:23:31.989Z,6.00
2018-01-13T23:25:58.017Z,6.00
2018-01-13T23:28:24.045Z,6.10
2018-01-13T23:30:50.069Z,5.90
2018-01-13T23:33:16.353Z,5.90
2018-01-13T23:35:42.972Z,5.90
2018-01-13T23:38:09.205Z,5.80
2018-01-13T23:40:35.465Z,6.00
2018-01-13T23:43:02.544Z,6.00
2018-01-13T23:45:28.809Z,6.00
2018-01-13T23:47:55.830Z,6.00
2018-01-13T23:50:22.305Z,6.00
2018-01-13T23:52:49.616Z,5.90
2018-01-13T23:55:15.664Z,5.80
2018-01-13T23:57:41.905Z,5.70
